Terminal Aerodrome Forecast
Issued by NWS Wichita, KS

Home | Current Version | Previous Version | Text Only | Print | Product List | Glossary On
Versions: 1 2 3 4 5 6 7 8 9 10 11 12 13 14 15 16 17 18 19 20
930
FTUS43 KICT 202320
TAFICT
TAF
KICT 202320Z 2100/2124 03014KT 6SM FU SKC
     FM211000 05014G20KT P6SM SCT040
     FM211500 04016G23KT P6SM BKN040=

USA.gov is the U.S. government's official web portal to all federal, state and local government web resources and services.